Time;durP1;ratioP1;P1;durP2;ratioP2;P2;SDS_P1;SDS_P2;PMS_P1;PMS_P2;Temp;Humidity;BMP_temperature;BMP_pressure;BME280_temperature;BME280_humidity;BME280_pressure;Samples;Min_cycle;Max_cycle;Signal;HPM_P1;HPM_P2
2021/04/14 00:01:54;;;;;;;21.02;11.23;;;9.10;87.60;;;;;;5053671;28;20029;-89
2021/04/14 00:04:20;;;;;;;22.77;11.50;;;9.10;87.50;;;;;;5054895;28;20043;-89
2021/04/14 00:06:45;;;;;;;22.83;11.68;;;9.00;87.60;;;;;;5053922;28;20453;-89
2021/04/14 00:09:12;;;;;;;21.20;10.82;;;9.10;87.60;;;;;;5054524;28;20361;-89
2021/04/14 00:11:38;;;;;;;21.88;11.00;;;9.10;87.50;;;;;;5054422;28;20060;-90
2021/04/14 00:14:08;;;;;;;21.77;11.10;;;9.10;87.50;;;;;;5053299;28;20525;-89
2021/04/14 00:16:34;;;;;;;27.05;11.32;;;9.10;87.50;;;;;;5053824;28;20032;-89
2021/04/14 00:19:00;;;;;;;27.80;9.98;;;9.10;87.50;;;;;;5053640;28;20037;-89
2021/04/14 00:21:26;;;;;;;21.70;9.80;;;9.10;87.50;;;;;;5053271;28;20040;-89
2021/04/14 00:23:53;;;;;;;21.67;9.80;;;9.10;87.40;;;;;;5053354;28;20456;-89
2021/04/14 00:26:20;;;;;;;18.13;9.38;;;9.10;87.20;;;;;;5053153;28;20053;-89
2021/04/14 00:28:45;;;;;;;15.13;8.02;;;9.10;87.00;;;;;;5053637;28;20388;-89
2021/04/14 00:31:12;;;;;;;12.55;7.93;;;9.10;86.90;;;;;;5053142;28;20029;-89
2021/04/14 00:33:39;;;;;;;16.02;8.75;;;9.10;86.80;;;;;;5053073;28;20029;-89
2021/04/14 00:36:05;;;;;;;15.55;7.88;;;9.00;86.60;;;;;;5053434;28;20054;-88
2021/04/14 00:38:31;;;;;;;13.55;7.85;;;9.00;86.50;;;;;;5052398;28;20040;-89
2021/04/14 00:41:03;;;;;;;19.02;8.15;;;8.90;86.40;;;;;;5052954;28;20029;-89
2021/04/14 00:43:32;;;;;;;22.27;9.65;;;8.80;86.30;;;;;;5052681;28;20025;-89
2021/04/14 00:45:58;;;;;;;22.15;9.35;;;8.80;86.30;;;;;;5053176;28;20071;-89
2021/04/14 00:48:24;;;;;;;26.90;11.63;;;8.70;86.30;;;;;;5052877;28;20067;-89
2021/04/14 00:50:50;;;;;;;28.35;10.60;;;8.70;86.40;;;;;;5052851;28;20459;-89
2021/04/14 00:53:17;;;;;;;27.48;11.60;;;8.60;86.50;;;;;;5052767;28;20113;-89
2021/04/14 00:55:43;;;;;;;28.27;11.18;;;8.50;86.50;;;;;;5052622;28;20024;-89
2021/04/14 00:58:09;;;;;;;19.00;10.40;;;8.40;86.70;;;;;;5054064;28;20036;-89
2021/04/14 01:00:50;;;;;;;19.08;9.88;;;8.40;86.90;;;;;;5052849;28;20029;-89
2021/04/14 01:03:22;;;;;;;20.92;9.35;;;8.30;87.00;;;;;;5053929;28;20052;-89
2021/04/14 01:05:50;;;;;;;14.50;8.57;;;8.30;87.40;;;;;;5052820;28;20024;-89
2021/04/14 01:08:17;;;;;;;12.18;8.25;;;8.20;87.60;;;;;;5052267;28;20029;-90
2021/04/14 01:10:42;;;;;;;10.80;6.78;;;8.20;87.80;;;;;;5053020;28;20032;-89
2021/04/14 01:13:10;;;;;;;9.15;6.75;;;8.10;87.60;;;;;;5052440;28;20021;-89
2021/04/14 01:15:38;;;;;;;11.23;7.35;;;8.10;87.70;;;;;;5053538;28;20035;-89
2021/04/14 01:18:07;;;;;;;8.45;6.45;;;8.00;87.90;;;;;;5052511;28;20029;-89
2021/04/14 01:20:34;;;;;;;8.25;6.63;;;7.90;87.90;;;;;;5056216;28;20416;-89
2021/04/14 01:23:00;;;;;;;10.57;7.18;;;7.90;88.00;;;;;;5067812;28;20464;-88
2021/04/14 01:25:35;;;;;;;11.43;7.07;;;7.90;88.20;;;;;;5065506;28;20501;-89
2021/04/14 01:28:04;;;;;;;8.60;7.13;;;7.80;88.40;;;;;;5065431;28;20460;-88
2021/04/14 01:30:30;;;;;;;10.90;7.63;;;7.70;88.50;;;;;;5069397;28;20035;-88
2021/04/14 01:32:56;;;;;;;11.30;8.05;;;7.70;88.60;;;;;;5071247;28;20448;-88
2021/04/14 01:35:25;;;;;;;13.43;8.70;;;7.70;88.70;;;;;;5069613;28;20048;-89
2021/04/14 01:37:52;;;;;;;11.48;8.57;;;7.70;88.80;;;;;;5065560;28;20123;-88
2021/04/14 01:40:20;;;;;;;11.98;8.38;;;7.60;89.60;;;;;;5054571;28;20052;-89
2021/04/14 01:42:46;;;;;;;11.63;8.40;;;7.60;89.20;;;;;;5052636;28;20025;-89
2021/04/14 01:45:14;;;;;;;12.57;8.30;;;7.60;89.30;;;;;;5052698;28;20025;-89
2021/04/14 01:47:40;;;;;;;12.23;8.93;;;7.60;89.40;;;;;;5052791;28;20062;-88
2021/04/14 01:50:07;;;;;;;13.02;9.13;;;7.50;89.50;;;;;;5053565;28;20033;-88
2021/04/14 01:52:33;;;;;;;12.45;9.48;;;7.50;89.70;;;;;;5057193;28;20025;-88
2021/04/14 01:54:59;;;;;;;12.27;8.88;;;7.50;89.80;;;;;;5057525;28;20379;-88
2021/04/14 01:57:25;;;;;;;13.88;8.55;;;7.50;89.90;;;;;;5072023;28;20025;-89
2021/04/14 01:59:52;;;;;;;11.38;8.05;;;7.50;89.90;;;;;;5070260;28;20078;-90
2021/04/14 02:02:17;;;;;;;12.13;8.82;;;7.50;90.20;;;;;;5064206;28;20040;-89
2021/04/14 02:04:43;;;;;;;11.52;8.45;;;7.50;89.90;;;;;;5056329;28;20029;-89
2021/04/14 02:07:09;;;;;;;11.75;7.20;;;7.50;90.10;;;;;;5055697;28;20460;-88
2021/04/14 02:09:35;;;;;;;15.32;9.48;;;7.40;90.00;;;;;;5055549;28;20057;-89
2021/04/14 02:12:01;;;;;;;11.95;8.70;;;7.40;90.10;;;;;;5055673;28;20052;-89
2021/04/14 02:14:27;;;;;;;13.65;9.18;;;7.40;90.10;;;;;;5055271;28;20116;-89
2021/04/14 02:16:53;;;;;;;11.15;7.93;;;7.40;90.20;;;;;;5055648;28;20106;-89
2021/04/14 02:19:19;;;;;;;12.90;8.77;;;7.30;90.10;;;;;;5055801;28;20044;-89
2021/04/14 02:21:45;;;;;;;14.27;9.60;;;7.30;90.20;;;;;;5057512;28;20033;-89
2021/04/14 02:24:10;;;;;;;12.35;8.75;;;7.30;90.20;;;;;;5055844;28;20064;-89
2021/04/14 02:26:36;;;;;;;13.57;8.88;;;7.30;90.20;;;;;;5056158;28;20025;-89
2021/04/14 02:29:02;;;;;;;14.70;9.45;;;7.20;90.30;;;;;;5055345;28;20043;-89
2021/04/14 02:31:31;;;;;;;13.73;8.93;;;7.20;90.30;;;;;;5056013;28;20029;-89
2021/04/14 02:34:00;;;;;;;16.25;8.93;;;7.10;90.50;;;;;;5055627;28;20033;-89
2021/04/14 02:36:26;;;;;;;14.40;9.80;;;7.10;90.40;;;;;;5055567;28;20029;-89
2021/04/14 02:38:52;;;;;;;12.88;8.85;;;7.10;90.50;;;;;;5055222;28;20025;-89
2021/04/14 02:41:18;;;;;;;13.05;8.85;;;7.10;90.60;;;;;;5054966;28;20032;-89
2021/04/14 02:43:44;;;;;;;13.02;8.63;;;7.10;90.70;;;;;;5038393;28;20443;-88
2021/04/14 02:46:10;;;;;;;14.85;8.43;;;7.00;90.60;;;;;;5054764;28;20057;-89
2021/04/14 02:48:37;;;;;;;11.05;8.35;;;7.00;90.80;;;;;;5055540;28;20037;-89
2021/04/14 02:51:03;;;;;;;12.05;8.88;;;7.00;90.80;;;;;;5055044;28;20033;-89
2021/04/14 02:53:29;;;;;;;12.88;8.15;;;7.00;90.70;;;;;;5055506;28;20026;-89
2021/04/14 02:55:54;;;;;;;13.80;9.20;;;6.90;90.70;;;;;;5054645;28;20021;-89
2021/04/14 02:58:20;;;;;;;10.93;7.68;;;6.90;90.80;;;;;;5056365;28;20032;-89
2021/04/14 03:00:46;;;;;;;13.25;8.13;;;6.80;90.80;;;;;;5061799;28;20426;-89
2021/04/14 03:03:12;;;;;;;11.98;7.97;;;6.90;90.90;;;;;;5068025;28;20491;-89
2021/04/14 03:05:37;;;;;;;12.60;7.75;;;6.80;90.80;;;;;;5073037;28;20026;-89
2021/04/14 03:08:04;;;;;;;15.02;9.48;;;6.80;90.90;;;;;;5071310;28;20082;-88
2021/04/14 03:10:30;;;;;;;13.75;8.23;;;6.80;91.00;;;;;;5057118;28;20049;-89
2021/04/14 03:12:57;;;;;;;12.50;8.02;;;6.80;91.00;;;;;;5054635;28;20052;-89
2021/04/14 03:15:27;;;;;;;13.50;9.05;;;6.70;91.00;;;;;;5054940;28;20025;-89
2021/04/14 03:17:53;;;;;;;13.85;8.77;;;6.80;91.20;;;;;;5055638;28;20460;-89
2021/04/14 03:20:20;;;;;;;15.73;10.75;;;6.70;91.20;;;;;;5054786;28;20025;-89
2021/04/14 03:22:46;;;;;;;14.30;9.63;;;6.70;91.30;;;;;;5054590;28;20033;-89
2021/04/14 03:25:12;;;;;;;15.40;10.05;;;6.80;91.40;;;;;;5055213;28;20021;-89
2021/04/14 03:27:38;;;;;;;15.07;9.65;;;6.80;91.40;;;;;;5054838;28;20032;-89
2021/04/14 03:30:08;;;;;;;15.75;10.95;;;6.70;91.30;;;;;;5054302;28;20025;-89
2021/04/14 03:32:34;;;;;;;19.48;11.63;;;6.80;91.40;;;;;;5054242;28;20024;-89
2021/04/14 03:35:00;;;;;;;19.58;11.45;;;6.80;91.50;;;;;;5055428;28;20076;-89
2021/04/14 03:37:26;;;;;;;17.42;12.07;;;6.80;91.30;;;;;;5054231;28;20502;-89
2021/04/14 03:39:51;;;;;;;18.15;11.38;;;6.80;91.50;;;;;;5054116;28;20060;-89
2021/04/14 03:42:17;;;;;;;18.15;11.05;;;6.80;91.50;;;;;;5054183;28;20456;-89
2021/04/14 03:44:45;;;;;;;18.15;10.13;;;6.90;91.40;;;;;;5054239;28;20033;-89
2021/04/14 03:47:11;;;;;;;16.52;10.13;;;6.90;91.40;;;;;;5054539;28;20029;-89
2021/04/14 03:49:37;;;;;;;15.60;9.13;;;6.90;91.30;;;;;;5055181;28;20380;-89
2021/04/14 03:52:03;;;;;;;14.32;10.10;;;6.90;91.40;;;;;;5054440;28;20482;-89
2021/04/14 03:54:29;;;;;;;15.10;9.65;;;7.00;91.40;;;;;;5054399;28;20032;-89
2021/04/14 03:56:55;;;;;;;16.90;10.60;;;7.00;91.40;;;;;;5053853;28;20031;-88
2021/04/14 03:59:20;;;;;;;16.40;11.35;;;7.00;91.40;;;;;;5054302;28;20124;-89
2021/04/14 04:01:46;;;;;;;15.20;9.88;;;7.10;91.40;;;;;;5054386;28;20025;-89
2021/04/14 04:04:12;;;;;;;15.32;9.98;;;7.20;91.40;;;;;;5054002;28;20468;-89
2021/04/14 04:06:37;;;;;;;14.95;9.32;;;7.20;91.40;;;;;;5054742;28;20100;-89
2021/04/14 04:09:04;;;;;;;15.60;10.10;;;7.30;91.40;;;;;;5052952;28;20084;-89
2021/04/14 04:11:30;;;;;;;12.68;9.65;;;7.40;91.40;;;;;;5053178;28;20129;-88
2021/04/14 04:13:58;;;;;;;16.52;10.18;;;7.40;91.30;;;;;;5052836;28;20467;-88
2021/04/14 04:16:24;;;;;;;14.73;10.43;;;7.50;91.30;;;;;;5053180;28;20036;-89
2021/04/14 04:18:50;;;;;;;15.30;10.30;;;7.60;91.30;;;;;;5053386;28;20033;-89
2021/04/14 04:21:16;;;;;;;16.83;11.40;;;7.60;91.20;;;;;;5053294;28;20025;-89
2021/04/14 04:23:42;;;;;;;17.30;10.77;;;7.70;91.20;;;;;;5053330;28;20051;-89
2021/04/14 04:26:07;;;;;;;15.88;10.88;;;7.80;91.20;;;;;;5053640;28;20475;-89
2021/04/14 04:28:33;;;;;;;18.30;11.45;;;7.90;91.10;;;;;;5053353;28;20419;-89
2021/04/14 04:30:59;;;;;;;21.23;12.32;;;8.00;91.00;;;;;;5052999;28;20025;-89
2021/04/14 04:33:26;;;;;;;19.88;12.13;;;8.10;91.20;;;;;;5053524;28;20074;-89
2021/04/14 04:35:51;;;;;;;15.93;10.85;;;8.20;90.80;;;;;;5055733;28;20048;-90
2021/04/14 04:38:17;;;;;;;16.95;10.73;;;8.20;90.70;;;;;;5067640;28;20033;-89
2021/04/14 04:40:43;;;;;;;16.13;11.25;;;8.30;90.60;;;;;;5069961;28;20029;-89
2021/04/14 04:43:09;;;;;;;17.50;11.35;;;8.30;90.50;;;;;;5070497;28;20027;-88
2021/04/14 04:45:35;;;;;;;16.60;11.00;;;8.40;90.50;;;;;;5069387;28;20089;-88
2021/04/14 04:48:03;;;;;;;16.63;10.73;;;8.40;90.40;;;;;;5059969;28;20494;-89
2021/04/14 04:50:31;;;;;;;18.27;12.18;;;8.50;90.40;;;;;;5053353;28;20033;-89
2021/04/14 04:53:25;;;;;;;16.60;12.52;;;8.60;90.20;;;;;;5053349;28;20025;-89
2021/04/14 04:55:51;;;;;;;15.90;11.35;;;8.60;90.10;;;;;;5056034;28;20051;-88
2021/04/14 04:58:18;;;;;;;15.95;12.27;;;8.60;90.00;;;;;;5053910;28;20083;-89
2021/04/14 05:00:46;;;;;;;15.73;11.52;;;8.70;89.80;;;;;;5052405;28;20464;-89
2021/04/14 05:03:14;;;;;;;18.25;13.13;;;8.70;89.60;;;;;;5052692;28;20090;-89
2021/04/14 05:05:41;;;;;;;18.30;12.80;;;8.70;89.40;;;;;;5052822;28;20028;-89
2021/04/14 05:08:09;;;;;;;16.60;11.55;;;8.70;89.10;;;;;;5052433;28;20040;-89
2021/04/14 05:10:36;;;;;;;17.85;11.73;;;8.70;88.90;;;;;;5052543;28;20029;-89
2021/04/14 05:13:03;;;;;;;15.25;11.45;;;8.70;88.70;;;;;;5052617;28;20460;-89
2021/04/14 05:15:30;;;;;;;14.68;10.68;;;8.70;88.60;;;;;;5052324;28;20036;-89
2021/04/14 05:17:57;;;;;;;17.10;11.15;;;8.60;88.70;;;;;;5052460;28;20040;-89
2021/04/14 05:20:22;;;;;;;15.98;10.70;;;8.60;88.70;;;;;;5052529;28;20474;-89
2021/04/14 05:22:49;;;;;;;13.95;10.38;;;8.60;88.80;;;;;;5052369;28;20111;-89
2021/04/14 05:25:17;;;;;;;14.50;10.07;;;8.60;88.90;;;;;;5055443;28;20092;-89
2021/04/14 05:27:43;;;;;;;18.58;12.55;;;8.70;88.90;;;;;;5056350;28;20057;-89
2021/04/14 05:30:12;;;;;;;15.68;10.57;;;8.70;88.60;;;;;;5056368;28;20048;-89
2021/04/14 05:32:39;;;;;;;16.88;10.20;;;8.70;88.40;;;;;;5056859;28;20032;-89
2021/04/14 05:35:06;;;;;;;16.35;11.38;;;8.80;88.40;;;;;;5056364;28;20071;-90
2021/04/14 05:37:32;;;;;;;14.85;10.93;;;8.80;88.50;;;;;;5056769;28;20460;-89
2021/04/14 05:39:58;;;;;;;15.98;10.85;;;8.90;88.40;;;;;;5056984;28;20052;-89
2021/04/14 05:42:24;;;;;;;14.65;11.10;;;9.00;88.20;;;;;;5057643;28;20059;-89
2021/04/14 05:44:50;;;;;;;15.18;11.13;;;9.10;88.40;;;;;;5055838;28;20112;-89
2021/04/14 05:47:16;;;;;;;16.17;11.68;;;9.30;88.30;;;;;;5056103;28;20025;-89
2021/04/14 05:49:42;;;;;;;15.27;10.32;;;9.50;88.00;;;;;;5056222;28;20089;-90
2021/04/14 05:52:08;;;;;;;16.13;10.95;;;9.70;87.40;;;;;;5056046;28;20029;-89
2021/04/14 05:54:33;;;;;;;13.52;10.73;;;9.80;86.60;;;;;;5056592;28;20064;-88
2021/04/14 05:56:59;;;;;;;15.35;9.95;;;9.90;85.70;;;;;;5057174;28;20096;-89
2021/04/14 05:59:25;;;;;;;12.88;10.38;;;10.00;85.30;;;;;;5057519;28;20082;-89
2021/04/14 06:01:50;;;;;;;15.63;12.35;;;10.10;85.20;;;;;;5055714;28;20061;-89
2021/04/14 06:04:19;;;;;;;14.18;11.75;;;10.20;84.90;;;;;;5055990;28;20029;-89
2021/04/14 06:06:45;;;;;;;14.18;11.00;;;10.30;84.70;;;;;;5055281;28;20060;-89
2021/04/14 06:09:13;;;;;;;11.13;9.43;;;10.40;83.90;;;;;;5055883;28;20076;-89
2021/04/14 06:11:40;;;;;;;13.98;10.23;;;10.50;83.90;;;;;;5063786;28;20058;-90
2021/04/14 06:14:07;;;;;;;13.32;10.20;;;10.60;83.30;;;;;;5075949;28;20088;-90
2021/04/14 06:16:32;;;;;;;12.10;8.82;;;10.60;83.10;;;;;;5075419;28;20036;-89
2021/04/14 06:18:59;;;;;;;12.43;9.25;;;10.80;82.80;;;;;;5075479;28;20028;-89
2021/04/14 06:21:26;;;;;;;13.98;10.15;;;10.90;82.60;;;;;;5076808;28;20020;-89
2021/04/14 06:23:53;;;;;;;13.88;9.73;;;11.10;82.30;;;;;;5080159;28;20029;-89
2021/04/14 06:28:48;;;;;;;12.73;8.68;;;11.20;80.80;;;;;;5083075;28;20105;-88
2021/04/14 06:31:14;;;;;;;12.95;10.13;;;11.30;80.70;;;;;;5081569;28;20064;-89
2021/04/14 06:33:43;;;;;;;13.65;10.55;;;11.40;80.80;;;;;;5087024;28;20031;-88
2021/04/14 06:36:10;;;;;;;14.55;10.48;;;11.40;79.80;;;;;;5090956;28;20032;-90
2021/04/14 06:38:42;;;;;;;12.00;9.77;;;11.50;79.70;;;;;;5076726;28;20037;-89
2021/04/14 06:41:36;;;;;;;13.95;9.63;;;11.60;79.80;;;;;;5066191;28;20111;-89
2021/04/14 06:44:12;;;;;;;15.65;10.32;;;11.80;79.30;;;;;;5056632;28;20119;-90
2021/04/14 06:46:41;;;;;;;13.73;11.20;;;11.90;77.50;;;;;;5055899;28;20033;-90
2021/04/14 06:49:36;;;;;;;17.15;11.82;;;12.10;77.50;;;;;;5057334;28;20468;-89
2021/04/14 06:52:13;;;;;;;13.88;10.35;;;12.20;76.60;;;;;;5055627;28;20033;-89
2021/04/14 06:55:05;;;;;;;18.38;11.27;;;12.30;77.20;;;;;;5058808;28;20025;-89
2021/04/14 06:57:43;;;;;;;15.13;9.32;;;12.50;76.00;;;;;;5056587;28;20111;-90
2021/04/14 07:00:20;;;;;;;12.90;9.63;;;12.60;75.80;;;;;;5056917;28;20034;-88
2021/04/14 07:03:07;;;;;;;17.45;8.98;;;12.70;75.90;;;;;;5071417;28;20542;-88
2021/04/14 07:05:52;;;;;;;14.73;10.23;;;12.90;75.80;;;;;;5071895;28;20025;-89
2021/04/14 07:08:21;;;;;;;11.02;8.40;;;13.10;74.90;;;;;;5054639;28;20033;-89
2021/04/14 07:11:02;;;;;;;9.45;8.20;;;13.30;74.50;;;;;;5071294;28;20391;-89
2021/04/14 07:13:31;;;;;;;17.15;11.65;;;13.50;72.90;;;;;;5071296;28;20033;-89
2021/04/14 07:16:18;;;;;;;12.23;9.13;;;13.60;73.20;;;;;;5054626;28;20052;-88
2021/04/14 07:19:16;;;;;;;14.02;10.23;;;13.80;72.30;;;;;;5056328;28;20424;-89
2021/04/14 07:21:52;;;;;;;11.77;9.48;;;13.90;70.70;;;;;;5054936;28;20029;-89
2021/04/14 07:24:40;;;;;;;11.13;8.73;;;14.10;70.30;;;;;;5071503;28;20028;-89
2021/04/14 07:27:14;;;;;;;11.57;8.32;;;14.20;70.10;;;;;;5071159;28;20029;-90
2021/04/14 07:30:16;;;;;;;9.48;7.35;;;14.30;69.40;;;;;;5070983;28;20090;-89
2021/04/14 07:32:51;;;;;;;11.88;8.80;;;14.30;69.50;;;;;;5075376;28;20040;-89
2021/04/14 07:35:25;;;;;;;12.05;9.95;;;14.40;68.70;;;;;;5070854;28;20083;-89
2021/04/14 07:38:36;;;;;;;11.73;9.15;;;14.40;68.40;;;;;;5071266;28;20032;-90
2021/04/14 07:41:36;;;;;;;10.90;8.75;;;14.50;66.20;;;;;;5092693;28;20028;-89
2021/04/14 07:44:23;;;;;;;9.45;7.40;;;14.50;67.00;;;;;;5093224;28;20028;-89
2021/04/14 07:46:49;;;;;;;11.63;8.73;;;14.50;66.80;;;;;;5072348;28;20029;-89
2021/04/14 07:49:17;;;;;;;10.88;8.52;;;14.50;67.30;;;;;;5069644;28;20036;-89
2021/04/14 07:51:43;;;;;;;11.00;7.38;;;14.50;67.40;;;;;;5071033;28;20029;-89
2021/04/14 07:54:18;;;;;;;11.77;8.52;;;14.60;66.80;;;;;;5069932;28;20035;-88
2021/04/14 07:56:49;;;;;;;12.48;9.85;;;14.60;66.70;;;;;;5070602;28;20029;-88
2021/04/14 07:59:22;;;;;;;16.30;9.50;;;14.70;65.60;;;;;;5070239;28;20047;-88
2021/04/14 08:01:58;;;;;;;11.32;10.15;;;14.80;65.00;;;;;;5070542;28;20063;-89
2021/04/14 08:04:46;;;;;;;9.80;7.90;;;14.80;64.80;;;;;;5053368;28;20029;-89
2021/04/14 08:07:16;;;;;;;11.63;9.57;;;14.90;64.20;;;;;;5070595;28;20483;-89
2021/04/14 08:09:58;;;;;;;11.68;9.15;;;15.10;64.80;;;;;;5070445;28;20053;-89
2021/04/14 08:12:26;;;;;;;10.07;8.43;;;15.20;63.40;;;;;;5055091;28;20464;-89
2021/04/14 08:14:52;;;;;;;9.68;7.95;;;15.30;64.00;;;;;;5054680;28;20071;-89
2021/04/14 08:17:24;;;;;;;10.63;7.40;;;15.40;63.90;;;;;;5080902;28;20025;-89
2021/04/14 08:20:01;;;;;;;8.68;6.90;;;15.50;63.30;;;;;;5085559;28;20036;-88
2021/04/14 08:22:28;;;;;;;7.10;5.30;;;15.50;61.10;;;;;;5071234;28;20059;-88
2021/04/14 08:25:01;;;;;;;4.63;4.07;;;15.50;60.90;;;;;;5090955;28;20123;-88
2021/04/14 08:27:36;;;;;;;5.82;3.50;;;15.50;59.80;;;;;;5085932;28;20025;-89
2021/04/14 08:30:02;;;;;;;3.88;3.47;;;15.50;59.30;;;;;;5071117;28;20055;-88
2021/04/14 08:32:31;;;;;;;6.95;4.22;;;15.60;59.40;;;;;;5070209;28;20075;-88
2021/04/14 08:35:01;;;;;;;6.57;3.63;;;15.70;59.50;;;;;;5070012;28;20036;-88
2021/04/14 08:37:28;;;;;;;4.95;3.40;;;15.80;59.10;;;;;;5069768;28;20060;-88
2021/04/14 08:40:05;;;;;;;5.50;3.78;;;16.00;58.80;;;;;;5054174;28;20029;-88
2021/04/14 08:42:35;;;;;;;8.52;4.18;;;16.10;57.40;;;;;;5069616;28;20082;-88
2021/04/14 08:45:04;;;;;;;4.80;3.80;;;16.10;57.10;;;;;;5069771;28;20032;-88
2021/04/14 08:47:32;;;;;;;4.70;3.78;;;16.20;56.90;;;;;;5069273;28;20472;-88
2021/04/14 08:50:03;;;;;;;4.82;3.80;;;16.30;57.00;;;;;;5069597;28;20056;-88
2021/04/14 08:52:31;;;;;;;4.60;4.10;;;16.40;56.60;;;;;;5069253;28;20116;-88
2021/04/14 08:54:59;;;;;;;4.63;3.92;;;16.40;56.10;;;;;;5069501;28;20029;-89
2021/04/14 08:57:25;;;;;;;4.15;3.72;;;16.50;56.20;;;;;;5069646;28;20025;-88
2021/04/14 08:59:51;;;;;;;6.07;4.57;;;16.50;56.00;;;;;;5053716;28;20025;-88
2021/04/14 09:02:19;;;;;;;8.52;5.03;;;16.50;56.00;;;;;;5069108;28;20045;-89
2021/04/14 09:04:47;;;;;;;4.82;4.30;;;16.50;54.70;;;;;;5053978;28;20025;-88
2021/04/14 09:07:18;;;;;;;5.78;5.00;;;16.50;55.50;;;;;;5072346;28;20365;-90
2021/04/14 09:09:48;;;;;;;5.50;4.60;;;16.50;56.20;;;;;;5073941;28;20052;-90
2021/04/14 09:12:17;;;;;;;7.88;6.00;;;16.60;57.30;;;;;;5073137;28;20032;-89
2021/04/14 09:14:44;;;;;;;7.32;6.57;;;16.60;57.80;;;;;;5072702;28;20035;-89
2021/04/14 09:17:13;;;;;;;8.05;6.50;;;16.70;58.20;;;;;;5073510;28;20020;-90
2021/04/14 09:19:40;;;;;;;8.68;6.53;;;16.80;58.60;;;;;;5072099;28;20078;-90
2021/04/14 09:22:18;;;;;;;8.88;6.65;;;16.90;58.40;;;;;;5074554;28;20032;-90
2021/04/14 09:24:55;;;;;;;7.82;6.45;;;17.00;58.30;;;;;;5073044;28;20095;-90
2021/04/14 09:27:36;;;;;;;8.55;6.63;;;17.00;57.80;;;;;;5073054;28;20032;-90
2021/04/14 09:30:15;;;;;;;8.20;6.05;;;17.00;57.70;;;;;;5073053;28;20043;-90
2021/04/14 09:32:54;;;;;;;8.75;7.80;;;17.00;58.00;;;;;;5072273;28;20029;-89
2021/04/14 09:35:19;;;;;;;7.82;7.03;;;16.90;56.90;;;;;;5073540;28;20032;-89
2021/04/14 09:37:48;;;;;;;12.20;7.07;;;16.80;56.70;;;;;;5072821;28;20029;-89
2021/04/14 09:40:29;;;;;;;10.52;7.68;;;16.70;57.20;;;;;;5072830;28;20024;-89
2021/04/14 09:42:55;;;;;;;8.48;7.43;;;16.60;57.00;;;;;;5079378;28;20032;-89
2021/04/14 09:45:27;;;;;;;9.60;7.35;;;16.50;57.70;;;;;;5086776;28;20025;-89
2021/04/14 09:47:55;;;;;;;9.70;6.82;;;16.40;57.80;;;;;;5084380;28;20036;-89
2021/04/14 09:50:31;;;;;;;10.05;7.22;;;16.30;58.00;;;;;;5067836;28;20029;-89
2021/04/14 09:53:20;;;;;;;8.57;7.65;;;16.30;58.10;;;;;;5073578;28;20376;-90
2021/04/14 09:55:49;;;;;;;9.52;7.07;;;16.40;58.30;;;;;;5072568;28;20040;-91
2021/04/14 09:58:33;;;;;;;11.10;7.75;;;16.50;58.10;;;;;;5071596;28;20035;-90
2021/04/14 10:01:28;;;;;;;7.22;6.45;;;16.60;57.60;;;;;;5078421;28;20032;-90
2021/04/14 10:07:42;;;;;;;8.90;7.15;;;16.70;56.90;;;;;;5098906;28;20121;-88
2021/04/14 10:10:19;;;;;;;7.70;6.90;;;16.70;57.70;;;;;;5124008;27;20126;-89
2021/04/14 10:12:45;;;;;;;10.55;7.80;;;16.70;57.10;;;;;;5128481;27;20110;-88
2021/04/14 10:15:12;;;;;;;8.35;6.05;;;16.70;56.70;;;;;;5106469;27;20034;-89
2021/04/14 10:17:38;;;;;;;8.68;7.30;;;16.60;57.00;;;;;;5139427;27;20390;-89
2021/04/14 10:20:30;;;;;;;8.13;6.18;;;16.60;57.10;;;;;;5121638;27;20045;-89
2021/04/14 10:22:56;;;;;;;9.02;8.13;;;16.70;56.90;;;;;;5121455;27;20492;-89
2021/04/14 10:25:29;;;;;;;10.07;7.35;;;16.70;57.20;;;;;;5103685;27;20039;-90
2021/04/14 10:28:08;;;;;;;11.32;7.20;;;16.70;57.00;;;;;;5120851;27;20027;-89
2021/04/14 10:30:42;;;;;;;9.57;7.25;;;16.70;57.00;;;;;;5120554;27;20074;-89
2021/04/14 10:33:25;;;;;;;12.32;7.30;;;16.60;57.30;;;;;;5121604;27;20046;-89
2021/04/14 10:35:52;;;;;;;8.55;6.45;;;16.60;58.10;;;;;;5124666;27;20135;-91
2021/04/14 10:38:31;;;;;;;9.82;7.85;;;16.60;58.50;;;;;;5123083;27;20027;-91
2021/04/14 10:41:11;;;;;;;12.65;6.97;;;16.70;57.50;;;;;;5121172;27;20035;-90
2021/04/14 10:43:37;;;;;;;9.07;6.97;;;16.70;57.60;;;;;;5120322;27;20027;-90
2021/04/14 10:46:27;;;;;;;10.70;6.55;;;16.80;57.70;;;;;;5120612;27;20031;-90
2021/04/14 10:49:20;;;;;;;7.60;6.75;;;16.80;57.50;;;;;;5112298;27;20466;-90
2021/04/14 10:52:02;;;;;;;8.65;6.63;;;16.90;57.20;;;;;;5125599;27;20023;-91
2021/04/14 10:57:58;;;;;;;8.18;6.82;;;17.10;56.20;;;;;;5123140;27;20036;-92
2021/04/14 11:00:33;;;;;;;9.38;6.72;;;17.10;55.30;;;;;;5108930;27;20070;-93
2021/04/14 11:03:24;;;;;;;7.80;7.00;;;17.10;56.00;;;;;;5112597;27;20024;-92
2021/04/14 11:05:51;;;;;;;9.77;7.05;;;17.20;56.00;;;;;;5110625;27;20530;-92
2021/04/14 11:08:50;;;;;;;8.52;7.18;;;17.10;55.80;;;;;;5124332;27;20031;-92
2021/04/14 11:11:16;;;;;;;7.28;6.07;;;17.10;56.50;;;;;;5116973;28;20043;-92
2021/04/14 11:13:43;;;;;;;7.75;6.93;;;17.00;56.70;;;;;;5108559;28;20028;-92
2021/04/14 11:16:32;;;;;;;8.07;7.13;;;17.00;56.90;;;;;;5133447;27;20072;-91
2021/04/14 11:19:10;;;;;;;8.57;7.10;;;17.00;57.00;;;;;;5148233;27;20055;-91
2021/04/14 11:21:43;;;;;;;7.53;6.53;;;17.00;57.10;;;;;;5111749;27;20114;-91
2021/04/14 11:24:28;;;;;;;8.82;7.43;;;17.10;57.80;;;;;;5117532;27;20466;-90
2021/04/14 11:27:02;;;;;;;9.07;7.05;;;17.20;57.50;;;;;;5081034;27;20028;-90
2021/04/14 11:29:30;;;;;;;8.07;6.53;;;17.20;57.40;;;;;;5122598;27;20130;-90
2021/04/14 11:31:59;;;;;;;9.15;7.45;;;17.30;56.80;;;;;;5099760;27;20044;-89
2021/04/14 11:34:45;;;;;;;6.85;5.75;;;17.30;57.30;;;;;;5103841;27;20032;-92
2021/04/14 11:37:26;;;;;;;12.77;6.68;;;17.40;57.50;;;;;;5118782;28;20039;-91
2021/04/14 11:40:09;;;;;;;9.40;7.35;;;17.40;57.30;;;;;;5097374;28;20049;-91
2021/04/14 11:42:50;;;;;;;8.25;6.72;;;17.50;56.40;;;;;;5126524;27;20042;-91
2021/04/14 11:45:40;;;;;;;14.63;6.43;;;17.50;57.40;;;;;;5121284;28;20024;-91
2021/04/14 11:48:09;;;;;;;7.47;5.82;;;17.60;56.50;;;;;;5102910;28;20051;-88
2021/04/14 11:50:38;;;;;;;10.65;7.43;;;17.60;56.20;;;;;;5122523;28;20028;-90
2021/04/14 11:53:29;;;;;;;7.18;5.57;;;17.60;57.00;;;;;;5118567;28;20057;-89
2021/04/14 11:55:57;;;;;;;8.23;6.80;;;17.50;57.50;;;;;;5108230;28;20114;-89
2021/04/14 11:58:38;;;;;;;8.50;6.60;;;17.40;57.10;;;;;;5115803;27;20497;-91
2021/04/14 12:01:08;;;;;;;8.10;6.22;;;17.30;56.30;;;;;;5085101;28;20073;-90
2021/04/14 12:03:39;;;;;;;11.40;7.05;;;17.20;56.60;;;;;;5085153;28;20038;-89
2021/04/14 12:06:07;;;;;;;7.55;6.80;;;17.10;56.10;;;;;;5091075;28;20032;-90
2021/04/14 12:08:34;;;;;;;8.70;6.82;;;17.00;56.20;;;;;;5093906;27;20058;-93
2021/04/14 12:11:05;;;;;;;9.77;7.35;;;16.90;56.20;;;;;;5100679;28;20030;-92
2021/04/14 12:13:34;;;;;;;7.35;6.15;;;16.80;56.60;;;;;;5097768;28;20057;-93
2021/04/14 12:16:00;;;;;;;7.95;6.55;;;16.70;56.80;;;;;;5099053;27;20043;-92
2021/04/14 12:18:37;;;;;;;8.20;5.68;;;16.60;56.60;;;;;;5126319;27;20370;-93
2021/04/14 12:21:09;;;;;;;6.75;5.72;;;16.60;56.90;;;;;;5104762;28;20520;-91
2021/04/14 12:23:53;;;;;;;;;;;;;;;;;;;;;
2021/04/14 12:26:23;;;;;;;6.40;5.53;;;16.70;57.00;;;;;;5114346;27;20040;-89
2021/04/14 12:28:49;;;;;;;5.78;4.90;;;16.70;57.10;;;;;;5090650;28;20047;-90
2021/04/14 12:31:15;;;;;;;7.25;5.70;;;16.70;56.80;;;;;;5103524;27;20032;-91
2021/04/14 12:33:41;;;;;;;5.75;4.57;;;16.70;56.50;;;;;;5097178;28;20047;-92
2021/04/14 12:36:09;;;;;;;5.32;4.75;;;16.70;56.40;;;;;;5113436;28;20156;-91
2021/04/14 12:38:34;;;;;;;6.38;4.93;;;16.70;56.40;;;;;;5096960;28;20531;-92
2021/04/14 12:41:01;;;;;;;6.63;5.60;;;16.70;56.60;;;;;;5108938;27;20023;-92
2021/04/14 12:43:28;;;;;;;7.88;5.00;;;16.60;56.60;;;;;;5095955;28;20042;-91
2021/04/14 12:45:55;;;;;;;8.55;4.93;;;16.60;56.70;;;;;;5081155;28;20024;-91
2021/04/14 12:48:35;;;;;;;5.28;4.78;;;16.60;56.80;;;;;;5100161;28;20036;-92
2021/04/14 12:51:25;;;;;;;5.28;4.78;;;16.60;56.60;;;;;;5076491;28;20031;-91
2021/04/14 12:54:25;;;;;;;5.45;4.57;;;16.60;56.60;;;;;;5100953;28;20027;-90
2021/04/14 12:57:17;;;;;;;5.78;5.07;;;16.60;56.60;;;;;;5076795;28;20489;-92
2021/04/14 13:00:07;;;;;;;6.95;4.93;;;16.60;56.60;;;;;;5093063;28;20032;-90
2021/04/14 13:02:48;;;;;;;5.75;4.82;;;16.50;56.40;;;;;;5094118;28;20023;-93
2021/04/14 13:05:27;;;;;;;6.35;5.47;;;16.50;56.60;;;;;;5086704;28;20031;-93
2021/04/14 13:08:30;;;;;;;6.20;5.60;;;16.50;56.20;;;;;;5117227;28;20024;-93
2021/04/14 13:11:02;;;;;;;7.28;5.25;;;16.40;56.00;;;;;;5099842;28;20059;-93
2021/04/14 13:13:28;;;;;;;5.32;4.45;;;16.40;56.60;;;;;;5086877;28;20098;-92